Flight Track Log - Related Links

Times and Time Zones

All times are in EDT time to prevent confusion due to time zone crossing. See the SKW5631 flight status page for this flight to view local times or setup timezone preferences in your user account.

Time Position Orientation Groundspeed Altitude Reporting Facility
EDT Latitude Longitude Course Direction KTS MPH feet Rate Location/Type
Tue 03:50:00 PM 30.4009 -97.7435 276° West  Level FlightAware Approximate
Tue 03:50:07 PM 30.3750 -97.7392 279° West 274 315 5,300  Level Houston Center
Tue 03:51:00 PM 30.4113 -97.8680 276° West  Level FlightAware Approximate
Tue 03:51:09 PM 30.3819 -97.8244 275° West 263 303 8,000  Level Houston Center
Tue 03:52:00 PM 30.4167 -97.9928 270° West  Level FlightAware Approximate
Tue 03:52:11 PM 30.3919 -97.9161 277° West 276 318 9,900  Level Houston Center
Tue 03:53:00 PM 30.4293 -98.1168 278° West  Level FlightAware Approximate
Tue 03:53:13 PM 30.4028 -98.0156 277° West 302 348 11,600  Level Houston Center
Tue 03:54:00 PM 30.4447 -98.2406 278° West  Level FlightAware Approximate
Tue 03:54:15 PM 30.4094 -98.1200 274° West 319 367 12,700  Level Houston Center
Tue 03:55:00 PM 30.4616 -98.3642 279° West  Level FlightAware Approximate
Tue 03:55:18 PM 30.4189 -98.2422 275° West 323 372 15,200  Level Houston Center
Tue 03:56:20 PM 30.4256 -98.3481 274° West 324 373 17,200 1,984 Climbing Houston Center
Tue 03:57:22 PM 30.4378 -98.4536 278° West 326 375 19,300 1,839 Climbing Houston Center
Tue 03:58:24 PM 30.4508 -98.5611 278° West 333 383 21,000 1,645 Climbing Houston Center
Tue 03:59:26 PM 30.4647 -98.6703 278° West 338 389 22,700 1,452 Climbing Houston Center
Tue 04:00:28 PM 30.4783 -98.7819 278° West 345 397 24,000 1,355 Climbing Houston Center
Tue 04:01:30 PM 30.4928 -98.8989 278° West 359 413 25,500 1,488 Climbing Houston Center
Tue 04:02:33 PM 30.5092 -99.0331 278° West 357 411 27,100 1,200 Climbing Houston Center
Tue 04:03:35 PM 30.5211 -99.1342 278° West 362 417 28,000 1,113 Climbing Houston Center
Tue 04:04:37 PM 30.5378 -99.2725 278° West 362 417 29,400 1,161 Climbing Houston Center
Tue 04:05:39 PM 30.5522 -99.3894 278° West 367 422 30,400 919 Climbing Houston Center
Tue 04:06:41 PM 30.5647 -99.5069 277° West 369 425 31,300 871 Climbing Houston Center
Tue 04:07:43 PM 30.5783 -99.6233 278° West 366 421 32,200 871 Climbing Houston Center
Tue 04:08:45 PM 30.5911 -99.7389 277° West 363 418 33,100 912 Climbing Houston Center
Tue 04:09:48 PM 30.6056 -99.8783 277° West 365 420 34,100 1,008 Climbing Houston Center
Tue 04:10:50 PM 30.6206 -99.9917 279° West 356 410 35,200 871 Climbing Houston Center
Tue 04:11:52 PM 30.6342 -100.1042 278° West 356 410 35,900 387 Climbing Houston Center
Tue 04:12:54 PM 30.6486 -100.2172 278° West 358 412 36,000 48 Climbing Houston Center
Tue 04:13:56 PM 30.6628 -100.3350 278° West 371 427 36,000  Level Houston Center
Tue 04:14:58 PM 30.6803 -100.4772 278° West 376 433 36,000  Level Houston Center
Tue 04:16:01 PM 30.6947 -100.5997 278° West 382 440 36,000  Level Houston Center
Tue 04:17:03 PM 30.7083 -100.7225 277° West 384 442 36,000  Level Houston Center
Tue 04:18:05 PM 30.7222 -100.8467 277° West 390 449 36,000  Level Houston Center
Tue 04:19:07 PM 30.7358 -100.9681 277° West 383 441 36,000  Level Houston Center
Tue 04:20:09 PM 30.7533 -101.1128 278° West 380 437 36,000  Level Houston Center
Tue 04:21:11 PM 30.7683 -101.2308 278° West 374 430 36,000 242 Level Houston Center
Tue 04:22:13 PM 30.7814 -101.3517 277° West 377 434 36,500 480 Climbing Houston Center
Tue 04:23:16 PM 30.7933 -101.4739 277° West 380 437 37,000 480 Climbing Houston Center
Tue 04:24:18 PM 30.8064 -101.5928 277° West 373 429 37,500 478 Climbing Houston Center
Tue 04:25:09 PM 30.8181 -101.6978 277° West 372 428 37,900 161 Climbing Albuquerque Center
Tue 04:27:24 PM 30.8469 -101.9617 277° West 369 425 38,000 30 Climbing Houston Center
Tue 04:28:26 PM 30.8594 -102.0814 277° West 371 427 38,000  Level Houston Center
Tue 04:29:16 PM 30.8714 -102.1997 277° West 372 428 38,000  Level Albuquerque Center
Tue 04:30:18 PM 30.8847 -102.3208 277° West 373 429 38,000  Level Albuquerque Center
Tue 04:31:20 PM 30.8969 -102.4400 277° West 371 427 38,000  Level Albuquerque Center
Tue 04:32:22 PM 30.9094 -102.5578 277° West 368 423 38,000  Level Albuquerque Center
Tue 04:33:24 PM 30.9206 -102.6750 276° West 365 420 38,000  Level Albuquerque Center
Tue 04:34:26 PM 30.9333 -102.7933 277° West 365 420 38,000  Level Albuquerque Center
Tue 04:35:28 PM 30.9447 -102.9089 277° West 363 418 38,000  Level Albuquerque Center
Tue 04:36:30 PM 30.9714 -103.0472 283° West 365 420 38,000  Level Albuquerque Center
Tue 04:37:32 PM 31.0022 -103.1583 288° West 364 419 38,000  Level Albuquerque Center
Tue 04:38:33 PM 31.0339 -103.2725 288° West 367 422 38,000  Level Albuquerque Center
Tue 04:39:35 PM 31.0650 -103.3847 288° West 365 420 38,000  Level Albuquerque Center
Tue 04:40:37 PM 31.0947 -103.4975 287° West 365 420 38,000  Level Albuquerque Center
Tue 04:41:39 PM 31.1253 -103.6100 288° West 364 419 38,000  Level Albuquerque Center
Tue 04:42:41 PM 31.1558 -103.7222 288° West 364 419 38,000  Level Albuquerque Center
Tue 04:43:43 PM 31.1914 -103.8544 287° West 366 421 38,000  Level Albuquerque Center
Tue 04:44:45 PM 31.2211 -103.9672 287° West 366 421 38,000  Level Albuquerque Center
Tue 04:45:47 PM 31.2522 -104.0803 288° West 367 422 38,000  Level Albuquerque Center
Tue 04:46:49 PM 31.2833 -104.1942 288° West 369 425 38,000  Level Albuquerque Center
Tue 04:47:51 PM 31.3128 -104.3089 287° West 371 427 38,000  Level Albuquerque Center
Tue 04:48:53 PM 31.3497 -104.4469 287° West 373 429 38,000  Level Albuquerque Center
Tue 04:49:55 PM 31.3800 -104.5622 287° West 373 429 38,000  Level Albuquerque Center
Tue 04:50:56 PM 31.4111 -104.6783 287° West 375 432 38,000  Level Albuquerque Center
Tue 04:51:58 PM 31.4411 -104.7933 287° West 374 430 38,000  Level Albuquerque Center
Tue 04:53:00 PM 31.4711 -104.9081 287° West 373 429 38,000  Level Albuquerque Center
Tue 04:54:02 PM 31.4997 -105.0242 286° West 374 430 38,000  Level Albuquerque Center
Tue 04:55:04 PM 31.5364 -105.1639 287° West 376 433 38,000  Level Albuquerque Center
Tue 04:56:06 PM 31.5669 -105.2803 287° West 377 434 38,000  Level Albuquerque Center
Tue 04:57:08 PM 31.5950 -105.4003 285° West 382 440 38,000  Level Albuquerque Center
Tue 04:58:10 PM 31.6247 -105.5183 286° West 380 437 38,000  Level Albuquerque Center
Tue 04:59:12 PM 31.6550 -105.6361 287° West 378 435 38,000  Level Albuquerque Center
Tue 05:00:14 PM 31.6897 -105.7778 286° West 379 436 38,000  Level Albuquerque Center
Tue 05:01:15 PM 31.7200 -105.8969 287° West 381 438 38,000  Level Albuquerque Center
Tue 05:02:17 PM 31.7503 -106.0161 287° West 383 441 38,000  Level Albuquerque Center
Tue 05:03:19 PM 31.7800 -106.1328 287° West 376 433 38,000  Level Albuquerque Center
Tue 05:04:21 PM 31.8100 -106.2500 287° West 375 432 38,000  Level Albuquerque Center
Tue 05:05:23 PM 31.8247 -106.3672 278° West 369 425 38,000  Level Albuquerque Center
Tue 05:06:25 PM 31.8453 -106.5125 279° West 374 430 38,000  Level Albuquerque Center
Tue 05:07:27 PM 31.8733 -106.6253 286° West 367 422 38,000  Level Albuquerque Center
Tue 05:08:29 PM 31.8978 -106.7394 284° West 362 417 38,000  Level Albuquerque Center
Tue 05:09:30 PM 31.9203 -106.8547 283° West 362 417 38,000  Level Albuquerque Center
Tue 05:10:32 PM 31.9439 -106.9686 284° West 359 413 38,000  Level Albuquerque Center
Tue 05:11:34 PM 31.9672 -107.0842 283° West 361 415 38,000  Level Albuquerque Center
Tue 05:12:36 PM 31.9894 -107.1981 283° West 358 412 38,000  Level Albuquerque Center
Tue 05:13:38 PM 32.0128 -107.3142 283° West 360 414 38,000  Level Albuquerque Center
Tue 05:14:40 PM 32.0397 -107.4531 283° West 360 414 38,000  Level Albuquerque Center
Tue 05:15:42 PM 32.0622 -107.5708 283° West 365 420 38,000  Level Albuquerque Center
Tue 05:16:44 PM 32.0856 -107.6867 283° West 363 418 38,000  Level Albuquerque Center
Tue 05:17:45 PM 32.1078 -107.8022 283° West 363 418 38,000  Level Albuquerque Center
Tue 05:18:47 PM 32.1308 -107.9200 283° West 366 421 38,000  Level Albuquerque Center
Tue 05:19:49 PM 32.1533 -108.0372 283° West 367 422 38,000  Level Albuquerque Center
Tue 05:20:52 PM 32.1764 -108.1528 283° West 363 418 38,000  Level Albuquerque Center
Tue 05:21:53 PM 32.2033 -108.2944 283° West 367 422 38,000  Level Albuquerque Center
Tue 05:22:55 PM 32.2250 -108.4133 282° West 370 426 38,000  Level Albuquerque Center
Tue 05:23:57 PM 32.2467 -108.5217 283° West 369 425 38,000  Level Albuquerque Center
Tue 05:24:59 PM 32.2686 -108.6403 282° West 371 427 38,000  Level Albuquerque Center
Tue 05:26:01 PM 32.2947 -108.7822 282° West 371 427 38,000  Level Albuquerque Center
Tue 05:27:03 PM 32.3164 -108.9003 282° West 370 426 38,000  Level Albuquerque Center
Tue 05:28:05 PM 32.3375 -109.0192 282° West 371 427 38,000  Level Albuquerque Center
Tue 05:29:07 PM 32.3594 -109.1378 282° West 371 427 38,000  Level Albuquerque Center
Tue 05:30:09 PM 32.3814 -109.2572 282° West 372 428 38,000  Level Albuquerque Center
Tue 05:31:11 PM 32.4081 -109.3994 283° West 371 427 38,000  Level Albuquerque Center
Tue 05:32:13 PM 32.4294 -109.5181 282° West 371 427 38,000 48 Level Albuquerque Center
Tue 05:33:15 PM 32.4500 -109.6372 282° West 372 428 38,100  Climbing Albuquerque Center
Tue 05:34:17 PM 32.4711 -109.7564 282° West 372 428 38,000 -49 Descending Albuquerque Center
Tue 05:35:18 PM 32.4944 -109.8781 283° West 376 433 38,000  Level Albuquerque Center
Tue 05:36:20 PM 32.5164 -109.9989 282° West 377 434 38,000  Level Albuquerque Center
Tue 05:37:22 PM 32.5414 -110.1444 282° West 379 436 38,000  Level Albuquerque Center
Tue 05:38:24 PM 32.5636 -110.2653 282° West 378 435 38,000  Level Albuquerque Center
Tue 05:39:26 PM 32.5858 -110.3908 282° West 383 441 38,000  Level Albuquerque Center
Tue 05:40:28 PM 32.6064 -110.5153 281° West 385 443 38,000  Level Albuquerque Center
Tue 05:41:30 PM 32.6286 -110.6394 282° West 385 443 38,000  Level Albuquerque Center
Tue 05:42:32 PM 32.6492 -110.7636 281° West 384 442 38,000  Level Albuquerque Center
Tue 05:43:34 PM 32.6708 -110.8886 282° West 386 444 38,000  Level Albuquerque Center
Tue 05:44:36 PM 32.7183 -111.0319 292° West 389 448 38,000  Level Albuquerque Center
Tue 05:45:38 PM 32.7617 -111.1503 294° West 392 451 38,000  Level Albuquerque Center
Tue 05:46:40 PM 32.8044 -111.2675 293° West 388 447 38,000  Level Albuquerque Center
Tue 05:47:42 PM 32.8478 -111.3833 294° West 384 442 38,000  Level Albuquerque Center
Tue 05:48:43 PM 32.8886 -111.5011 292° West 385 443 38,000  Level Albuquerque Center
Tue 05:49:45 PM 32.9317 -111.6186 294° West 387 445 38,000  Level Albuquerque Center
Tue 05:50:47 PM 32.9808 -111.7603 293° West 386 444 38,000  Level Albuquerque Center
Tue 05:51:49 PM 33.0222 -111.8781 293° West 385 443 38,000  Level Albuquerque Center
Tue 05:52:51 PM 33.0639 -111.9958 293° West 385 443 38,000  Level Albuquerque Center
Tue 05:53:53 PM 33.1047 -112.1133 293° West 384 442 38,000  Level Albuquerque Center
Tue 05:54:55 PM 33.1467 -112.2308 293° West 385 443 38,000  Level Albuquerque Center
Tue 05:55:58 PM 33.1875 -112.3492 292° West 385 443 38,000  Level Albuquerque Center
Tue 05:56:59 PM 33.2283 -112.4669 293° West 384 442 38,000  Level Albuquerque Center
Tue 05:58:01 PM 33.2689 -112.5850 292° West 384 442 38,000  Level Albuquerque Center
Tue 05:59:03 PM 33.3189 -112.7286 293° West 381 438 38,000  Level Albuquerque Center
Tue 06:00:05 PM 33.3586 -112.8461 292° West 382 440 38,000  Level Albuquerque Center
Tue 06:01:06 PM 33.4000 -112.9631 293° West 383 441 38,000  Level Albuquerque Center
Tue 06:02:08 PM 33.4394 -113.0794 292° West 381 438 38,000  Level Albuquerque Center
Tue 06:03:10 PM 33.4786 -113.1967 292° West 381 438 38,000  Level Albuquerque Center
Tue 06:04:12 PM 33.5181 -113.3142 292° West 381 438 38,000  Level Albuquerque Center
Tue 06:05:14 PM 33.5661 -113.4547 292° West 381 438 38,000  Level Albuquerque Center
Tue 06:06:15 PM 33.5975 -113.5739 288° West 378 435 38,000  Level Albuquerque Center
Tue 06:07:17 PM 33.6186 -113.6992 281° West 380 437 38,000  Level Albuquerque Center
Tue 06:08:19 PM 33.6431 -113.8225 283° West 380 437 38,000  Level Albuquerque Center
Tue 06:09:21 PM 33.6658 -113.9461 283° West 380 437 38,000  Level Albuquerque Center
Tue 06:10:23 PM 33.6886 -114.0703 282° West 382 440 38,000  Level Albuquerque Center
Tue 06:11:25 PM 33.7167 -114.2181 283° West 383 441 38,000  Level Albuquerque Center
Tue 06:12:26 PM 33.7381 -114.3428 282° West 382 440 38,000  Level Albuquerque Center
Tue 06:12:51 PM 33.7450 -114.3797 283° West 383 441 38,000  Level Los Angeles Center
Tue 06:13:53 PM 33.7719 -114.5303 282° West 385 443 38,000  Level Los Angeles Center
Tue 06:14:55 PM 33.7806 -114.6578 275° West 385 443 38,000  Level Los Angeles Center
Tue 06:15:57 PM 33.7883 -114.7875 274° West 389 448 38,000  Level Los Angeles Center
Tue 06:16:59 PM 33.7964 -114.9156 274° West 387 445 38,000  Level Los Angeles Center
Tue 06:18:01 PM 33.8031 -115.0436 274° West 388 447 38,000  Level Los Angeles Center
Tue 06:19:04 PM 33.8097 -115.1717 274° West 387 445 38,000  Level Los Angeles Center
Tue 06:20:06 PM 33.8178 -115.3253 274° West 384 442 38,000  Level Los Angeles Center
Tue 06:21:08 PM 33.8269 -115.4542 275° West 388 447 38,000  Level Los Angeles Center
Tue 06:22:10 PM 33.8642 -115.5772 290° West 394 453 38,000  Level Los Angeles Center
Tue 06:23:12 PM 33.9025 -115.6986 291° West 391 450 38,000  Level Los Angeles Center
Tue 06:24:14 PM 33.9417 -115.8194 291° West 391 450 38,000  Level Los Angeles Center
Tue 06:25:16 PM 33.9875 -115.9628 291° West 384 442 38,000  Level Los Angeles Center
Tue 06:26:18 PM 34.0267 -116.0839 291° West 387 445 38,000  Level Los Angeles Center
Tue 06:27:20 PM 34.0633 -116.2047 290° West 386 444 38,000  Level Los Angeles Center
Tue 06:28:23 PM 34.1028 -116.3250 292° West 387 445 38,000  Level Los Angeles Center
Tue 06:29:25 PM 34.1428 -116.4581 290° West 390 449 38,000  Level Los Angeles Center
Tue 06:30:27 PM 34.1983 -116.5683 301° West 394 453 38,000  Level Los Angeles Center
Tue 06:31:29 PM 34.2750 -116.6650 314° West 398 458 38,000  Level Los Angeles Center
Tue 06:32:31 PM 34.3342 -116.7747 303° West 397 457 38,000  Level Los Angeles Center
Tue 06:33:33 PM 34.3636 -116.9006 286° West 388 447 38,000  Level Los Angeles Center
Tue 06:34:35 PM 34.3989 -117.0519 286° West 389 448 38,000  Level Los Angeles Center
Tue 06:35:38 PM 34.4281 -117.1800 285° West 392 451 38,000  Level Los Angeles Center
Tue 06:36:40 PM 34.4581 -117.3072 286° West 392 451 38,000  Level Los Angeles Center
Tue 06:37:42 PM 34.4869 -117.4367 285° West 395 455 38,000  Level Los Angeles Center
Tue 06:38:44 PM 34.5175 -117.5664 286° West 399 459 38,000  Level Los Angeles Center
Tue 06:39:46 PM 34.5469 -117.6953 286° West 396 456 38,000  Level Los Angeles Center
Tue 06:40:48 PM 34.5828 -117.8519 286° West 401 461 38,000  Level Los Angeles Center
Tue 06:41:50 PM 34.6114 -117.9828 285° West 400 460 38,000  Level Los Angeles Center
Tue 06:42:52 PM 34.6608 -118.1067 296° West 409 471 38,000  Level Los Angeles Center
Tue 06:43:55 PM 34.7347 -118.2144 310° West 413 475 38,000  Level Los Angeles Center
Tue 06:44:57 PM 34.8086 -118.3208 310° West 410 472 38,000  Level Los Angeles Center
Tue 06:45:59 PM 34.8828 -118.4272 310° West 411 473 38,000  Level Los Angeles Center
Tue 06:47:01 PM 34.9483 -118.5531 302° West 411 473 38,000  Level Los Angeles Center
Tue 06:48:03 PM 34.9992 -118.6775 297° West 410 472 38,000  Level Los Angeles Center
Tue 06:49:05 PM 35.0625 -118.8267 297° West 417 480 38,000  Level Los Angeles Center
Tue 06:50:07 PM 35.1150 -118.9531 297° West 420 483 38,000  Level Los Angeles Center
Tue 06:51:09 PM 35.1664 -119.0775 297° West 414 476 38,000  Level Los Angeles Center
Tue 06:52:12 PM 35.2208 -119.2028 298° West 419 482 38,000  Level Los Angeles Center
Tue 06:53:14 PM 35.2725 -119.3306 296° West 421 484 38,000  Level Los Angeles Center
Tue 06:54:16 PM 35.3239 -119.4589 296° West 422 486 38,000  Level Los Angeles Center
Tue 06:55:18 PM 35.3875 -119.6119 297° West 423 487 38,000  Level Los Angeles Center
Tue 06:56:20 PM 35.4389 -119.7406 296° West 423 487 38,000  Level Los Angeles Center
Tue 06:57:23 PM 35.4881 -119.8669 296° West 424 488 38,000  Level Oakland Center
Tue 06:58:24 PM 35.5403 -119.9967 296° West 426 490 38,000  Level Oakland Center
Tue 06:59:25 PM 35.5919 -120.1258 296° West 428 493 38,000  Level Oakland Center
Tue 07:00:27 PM 35.6550 -120.2822 296° West 432 497 38,000  Level Oakland Center
Tue 07:01:28 PM 35.7061 -120.4128 296° West 431 496 38,000  Level Oakland Center
Tue 07:02:29 PM 35.7575 -120.5450 296° West 432 497 38,000  Level Oakland Center
Tue 07:03:30 PM 35.8103 -120.6769 296° West 433 498 38,000  Level Oakland Center
Tue 07:04:32 PM 35.8628 -120.8111 296° West 437 503 38,000  Level Oakland Center
Tue 07:05:33 PM 35.9150 -120.9442 296° West 435 501 38,000  Level Oakland Center
Tue 07:06:34 PM 35.9661 -121.0806 295° West 438 504 38,000  Level Oakland Center
Tue 07:07:35 PM 36.0322 -121.2042 304° West 440 506 38,000 -1,024 Level Oakland Center
Tue 07:08:37 PM 36.1450 -121.3219 320° Northwest 443 510 35,900 -2,390 Descending Oakland Center
Tue 07:09:38 PM 36.2392 -121.4183 320° Northwest 437 503 33,100 -2,754 Descending Oakland Center
Tue 07:10:39 PM 36.3286 -121.5139 319° Northwest 426 490 30,300 -2,754 Descending Oakland Center
Tue 07:11:40 PM 36.4181 -121.6092 319° Northwest 424 488 27,500 -2,732 Descending Oakland Center
Tue 07:12:42 PM 36.5081 -121.7069 319° Northwest 427 491 24,700 -2,836 Descending Oakland Center
Tue 07:13:30 PM 36.5833 -121.7833 321° Northwest 425 489 22,300 -2,889 Descending Northern Cal TRACON
Tue 07:14:30 PM 36.6667 -121.8833 316° Northwest 414 476 19,500 -2,777 Descending Northern Cal TRACON
Tue 07:15:31 PM 36.7667 -121.9667 326° Northwest 399 459 16,700 -2,800 Descending Northern Cal TRACON
Tue 07:16:30 PM 36.8667 -122.0000 345° North 388 447 13,900 -2,763 Descending Northern Cal TRACON
Tue 07:16:47 PM 36.8936 -122.0006 359° North 386 444 13,200 -923 Descending Oakland Center
Tue 07:17:48 PM 36.9922 -122.0278 348° North 366 421 12,700 -927 Descending Oakland Center
Tue 07:18:50 PM 37.0803 -122.0514 348° North 328 377 11,300 -1,366 Descending Oakland Center
Tue 07:19:51 PM 37.1608 -122.0717 349° North 300 345 9,900 -1,328 Descending Oakland Center
Tue 07:20:52 PM 37.2386 -122.0908 349° North 288 331 8,600 -1,268 Descending Oakland Center
Tue 07:21:54 PM 37.3139 -122.1117 348° North 280 322 7,300 -1,268 Descending Oakland Center
Tue 07:22:55 PM 37.3897 -122.1322 348° North 280 322 6,000 -1,131 Descending Oakland Center
Tue 07:23:56 PM 37.4681 -122.1536 348° North 246 283 5,000 -1,024 Descending Oakland Center
Tue 07:24:58 PM 37.5161 -122.1681 347° North 194 223 3,900 -1,065 Descending Oakland Center

Login

Don't have an account? Register now (free) for customized features, flight alerts, and more!